sensor_id;sensor_type;location;lat;lon;timestamp;pressure;altitude;pressure_sealevel;temperature;humidity
55113;BME280;41006;50.920;3.456;2023-06-10T00:00:27;101027.41;;;21.78;63.68
55113;BME280;41006;50.920;3.456;2023-06-10T00:00:57;101024.81;;;21.77;64.06
55113;BME280;41006;50.920;3.456;2023-06-10T00:01:29;101015.59;;;21.65;63.73
55113;BME280;41006;50.920;3.456;2023-06-10T00:02:00;101026.47;;;21.64;64.49
55113;BME280;41006;50.920;3.456;2023-06-10T00:02:30;101022.88;;;21.63;64.40
55113;BME280;41006;50.920;3.456;2023-06-10T00:03:05;101026.19;;;21.68;64.64
55113;BME280;41006;50.920;3.456;2023-06-10T00:03:35;101029.16;;;21.64;64.07
55113;BME280;41006;50.920;3.456;2023-06-10T00:04:06;101025.50;;;21.65;64.96
55113;BME280;41006;50.920;3.456;2023-06-10T00:04:38;101019.91;;;21.68;65.02
55113;BME280;41006;50.920;3.456;2023-06-10T00:05:14;101020.19;;;21.63;64.23
55113;BME280;41006;50.920;3.456;2023-06-10T00:05:46;101015.66;;;21.64;65.00
55113;BME280;41006;50.920;3.456;2023-06-10T00:06:19;101019.66;;;21.56;64.83
55113;BME280;41006;50.920;3.456;2023-06-10T00:06:54;101024.19;;;21.56;64.82
55113;BME280;41006;50.920;3.456;2023-06-10T00:07:30;101018.19;;;21.51;64.29
55113;BME280;41006;50.920;3.456;2023-06-10T00:08:00;101019.50;;;21.59;65.22
55113;BME280;41006;50.920;3.456;2023-06-10T00:08:37;101019.94;;;21.52;64.44
55113;BME280;41006;50.920;3.456;2023-06-10T00:09:07;101026.03;;;21.55;64.93
55113;BME280;41006;50.920;3.456;2023-06-10T00:09:43;101020.97;;;21.49;64.72
55113;BME280;41006;50.920;3.456;2023-06-10T00:10:15;101015.72;;;21.46;64.71
55113;BME280;41006;50.920;3.456;2023-06-10T00:10:51;101022.09;;;21.45;65.03
55113;BME280;41006;50.920;3.456;2023-06-10T00:11:24;101030.25;;;21.43;65.24
55113;BME280;41006;50.920;3.456;2023-06-10T00:11:57;101019.63;;;21.40;66.00
55113;BME280;41006;50.920;3.456;2023-06-10T00:12:30;101028.13;;;21.50;65.95
55113;BME280;41006;50.920;3.456;2023-06-10T00:13:05;101020.25;;;21.61;65.18
55113;BME280;41006;50.920;3.456;2023-06-10T00:13:38;101015.22;;;21.55;65.04
55113;BME280;41006;50.920;3.456;2023-06-10T00:14:11;101019.66;;;21.56;64.90
55113;BME280;41006;50.920;3.456;2023-06-10T00:14:43;101024.63;;;21.48;64.93
55113;BME280;41006;50.920;3.456;2023-06-10T00:15:14;101020.31;;;21.44;64.69
55113;BME280;41006;50.920;3.456;2023-06-10T00:15:49;101020.75;;;21.36;65.25
55113;BME280;41006;50.920;3.456;2023-06-10T00:16:20;101021.63;;;21.37;65.33
55113;BME280;41006;50.920;3.456;2023-06-10T00:16:50;101018.66;;;21.41;65.68
55113;BME280;41006;50.920;3.456;2023-06-10T00:17:24;101023.28;;;21.39;65.51
55113;BME280;41006;50.920;3.456;2023-06-10T00:17:55;101017.97;;;21.38;65.50
55113;BME280;41006;50.920;3.456;2023-06-10T00:18:25;101019.72;;;21.39;65.95
55113;BME280;41006;50.920;3.456;2023-06-10T00:18:59;101025.13;;;21.39;65.38
55113;BME280;41006;50.920;3.456;2023-06-10T00:19:31;101024.78;;;21.45;65.71
55113;BME280;41006;50.920;3.456;2023-06-10T00:20:05;101024.94;;;21.42;65.65
55113;BME280;41006;50.920;3.456;2023-06-10T00:20:39;101024.94;;;21.42;65.55
55113;BME280;41006;50.920;3.456;2023-06-10T00:21:09;101025.97;;;21.39;65.69
55113;BME280;41006;50.920;3.456;2023-06-10T00:21:43;101022.84;;;21.31;66.44
55113;BME280;41006;50.920;3.456;2023-06-10T00:22:14;101018.34;;;21.32;66.53
55113;BME280;41006;50.920;3.456;2023-06-10T00:22:45;101021.44;;;21.40;66.15
55113;BME280;41006;50.920;3.456;2023-06-10T00:23:19;101025.13;;;21.39;67.10
55113;BME280;41006;50.920;3.456;2023-06-10T00:23:49;101028.75;;;21.38;66.78
55113;BME280;41006;50.920;3.456;2023-06-10T00:24:20;101021.03;;;21.32;66.27
55113;BME280;41006;50.920;3.456;2023-06-10T00:24:53;101016.75;;;21.28;66.54
55113;BME280;41006;50.920;3.456;2023-06-10T00:25:25;101021.88;;;21.32;66.56
55113;BME280;41006;50.920;3.456;2023-06-10T00:25:58;101027.97;;;21.36;66.87
55113;BME280;41006;50.920;3.456;2023-06-10T00:26:31;101024.88;;;21.43;67.05
55113;BME280;41006;50.920;3.456;2023-06-10T00:27:04;101020.88;;;21.51;65.88
55113;BME280;41006;50.920;3.456;2023-06-10T00:27:36;101028.13;;;21.50;66.71
55113;BME280;41006;50.920;3.456;2023-06-10T00:28:07;101029.16;;;21.48;65.90
55113;BME280;41006;50.920;3.456;2023-06-10T00:28:39;101021.06;;;21.48;66.14
55113;BME280;41006;50.920;3.456;2023-06-10T00:29:10;101022.91;;;21.47;66.35
55113;BME280;41006;50.920;3.456;2023-06-10T00:29:42;101020.25;;;21.46;66.81
55113;BME280;41006;50.920;3.456;2023-06-10T00:30:13;101020.50;;;21.41;66.13
55113;BME280;41006;50.920;3.456;2023-06-10T00:30:49;101021.56;;;21.38;66.36
55113;BME280;41006;50.920;3.456;2023-06-10T00:31:19;101023.38;;;21.38;66.73
55113;BME280;41006;50.920;3.456;2023-06-10T00:31:52;101019.88;;;21.36;66.39
55113;BME280;41006;50.920;3.456;2023-06-10T00:32:27;101017.53;;;21.30;66.69
55113;BME280;41006;50.920;3.456;2023-06-10T00:32:57;101019.31;;;21.13;66.79
55113;BME280;41006;50.920;3.456;2023-06-10T00:33:28;101018.69;;;21.08;67.17
55113;BME280;41006;50.920;3.456;2023-06-10T00:33:59;101024.38;;;21.19;67.97
55113;BME280;41006;50.920;3.456;2023-06-10T00:34:30;101027.16;;;21.18;67.38
55113;BME280;41006;50.920;3.456;2023-06-10T00:35:00;101021.69;;;21.19;67.90
55113;BME280;41006;50.920;3.456;2023-06-10T00:35:30;101023.09;;;21.26;67.79
55113;BME280;41006;50.920;3.456;2023-06-10T00:36:03;101023.72;;;21.32;67.03
55113;BME280;41006;50.920;3.456;2023-06-10T00:36:34;101023.19;;;21.25;67.04
55113;BME280;41006;50.920;3.456;2023-06-10T00:37:08;101023.00;;;21.28;67.72
55113;BME280;41006;50.920;3.456;2023-06-10T00:37:38;101026.84;;;21.24;67.36
55113;BME280;41006;50.920;3.456;2023-06-10T00:38:13;101017.28;;;21.18;67.17
55113;BME280;41006;50.920;3.456;2023-06-10T00:38:46;101020.59;;;21.23;67.29
55113;BME280;41006;50.920;3.456;2023-06-10T00:39:18;101021.00;;;21.16;67.19
55113;BME280;41006;50.920;3.456;2023-06-10T00:39:53;101023.38;;;21.22;67.47
55113;BME280;41006;50.920;3.456;2023-06-10T00:40:26;101024.22;;;21.22;67.70
55113;BME280;41006;50.920;3.456;2023-06-10T00:41:01;101018.81;;;21.22;67.90
55113;BME280;41006;50.920;3.456;2023-06-10T00:41:32;101020.28;;;21.12;67.53
55113;BME280;41006;50.920;3.456;2023-06-10T00:42:07;101025.47;;;20.99;67.89
55113;BME280;41006;50.920;3.456;2023-06-10T00:42:43;101027.31;;;20.99;68.54
55113;BME280;41006;50.920;3.456;2023-06-10T00:43:16;101024.69;;;20.97;68.57
55113;BME280;41006;50.920;3.456;2023-06-10T00:43:48;101034.28;;;21.03;68.58
55113;BME280;41006;50.920;3.456;2023-06-10T00:44:21;101028.50;;;20.93;68.53
55113;BME280;41006;50.920;3.456;2023-06-10T00:44:53;101029.41;;;20.94;69.31
55113;BME280;41006;50.920;3.456;2023-06-10T00:45:28;101031.81;;;20.98;69.39
55113;BME280;41006;50.920;3.456;2023-06-10T00:45:59;101022.53;;;21.04;69.46
55113;BME280;41006;50.920;3.456;2023-06-10T00:46:32;101023.66;;;21.00;68.90
55113;BME280;41006;50.920;3.456;2023-06-10T00:47:07;101026.81;;;21.08;68.95
55113;BME280;41006;50.920;3.456;2023-06-10T00:47:38;101024.91;;;21.10;69.25
55113;BME280;41006;50.920;3.456;2023-06-10T00:48:11;101028.56;;;21.09;68.76
55113;BME280;41006;50.920;3.456;2023-06-10T00:48:43;101026.47;;;21.14;68.78
55113;BME280;41006;50.920;3.456;2023-06-10T00:49:16;101025.94;;;21.07;68.67
55113;BME280;41006;50.920;3.456;2023-06-10T00:49:48;101023.06;;;21.11;68.79
55113;BME280;41006;50.920;3.456;2023-06-10T00:50:19;101026.47;;;21.14;68.24
55113;BME280;41006;50.920;3.456;2023-06-10T00:50:49;101019.16;;;21.16;68.46
55113;BME280;41006;50.920;3.456;2023-06-10T00:51:22;101018.38;;;21.14;68.66
55113;BME280;41006;50.920;3.456;2023-06-10T00:51:55;101020.13;;;21.15;68.10
55113;BME280;41006;50.920;3.456;2023-06-10T00:52:28;101021.78;;;21.18;68.11
55113;BME280;41006;50.920;3.456;2023-06-10T00:53:00;101023.59;;;21.17;68.75
55113;BME280;41006;50.920;3.456;2023-06-10T00:53:32;101026.94;;;21.22;68.17
55113;BME280;41006;50.920;3.456;2023-06-10T00:54:03;101021.53;;;21.22;68.22
55113;BME280;41006;50.920;3.456;2023-06-10T00:54:34;101018.38;;;21.14;69.16
55113;BME280;41006;50.920;3.456;2023-06-10T00:55:07;101023.16;;;21.09;68.84
55113;BME280;41006;50.920;3.456;2023-06-10T00:55:38;101022.75;;;21.17;69.05
55113;BME280;41006;50.920;3.456;2023-06-10T00:56:09;101026.38;;;21.16;69.47
55113;BME280;41006;50.920;3.456;2023-06-10T00:56:43;101025.59;;;21.14;68.71
55113;BME280;41006;50.920;3.456;2023-06-10T00:57:13;101025.25;;;21.04;69.18
55113;BME280;41006;50.920;3.456;2023-06-10T00:57:48;101021.84;;;21.00;69.48
55113;BME280;41006;50.920;3.456;2023-06-10T00:58:25;101029.41;;;20.94;69.64
55113;BME280;41006;50.920;3.456;2023-06-10T00:58:56;101021.00;;;20.82;69.94
55113;BME280;41006;50.920;3.456;2023-06-10T00:59:30;101026.88;;;20.73;70.09
55113;BME280;41006;50.920;3.456;2023-06-10T01:00:01;101027.31;;;20.65;70.92
55113;BME280;41006;50.920;3.456;2023-06-10T01:00:31;101024.25;;;20.72;70.88
55113;BME280;41006;50.920;3.456;2023-06-10T01:01:04;101025.22;;;20.70;70.67
55113;BME280;41006;50.920;3.456;2023-06-10T01:01:34;101032.63;;;20.67;71.15
55113;BME280;41006;50.920;3.456;2023-06-10T01:02:07;101027.13;;;20.68;70.85
55113;BME280;41006;50.920;3.456;2023-06-10T01:02:41;101025.16;;;20.72;71.05
55113;BME280;41006;50.920;3.456;2023-06-10T01:03:14;101031.06;;;20.61;71.12
55113;BME280;41006;50.920;3.456;2023-06-10T01:03:47;101024.03;;;20.59;71.14
55113;BME280;41006;50.920;3.456;2023-06-10T01:04:18;101027.88;;;20.53;71.89
55113;BME280;41006;50.920;3.456;2023-06-10T01:04:52;101021.41;;;20.57;72.12
55113;BME280;41006;50.920;3.456;2023-06-10T01:05:23;101027.81;;;20.55;72.15
55113;BME280;41006;50.920;3.456;2023-06-10T01:06:01;101025.03;;;20.56;72.19
55113;BME280;41006;50.920;3.456;2023-06-10T01:06:45;101024.56;;;20.48;72.21
55113;BME280;41006;50.920;3.456;2023-06-10T01:08:39;101022.91;;;20.45;72.75
55113;BME280;41006;50.920;3.456;2023-06-10T01:09:37;101024.97;;;20.58;72.87
55113;BME280;41006;50.920;3.456;2023-06-10T01:10:23;101019.88;;;20.51;72.35
55113;BME280;41006;50.920;3.456;2023-06-10T01:10:59;101028.94;;;20.50;72.57
55113;BME280;41006;50.920;3.456;2023-06-10T01:11:40;101027.25;;;20.48;73.11
55113;BME280;41006;50.920;3.456;2023-06-10T01:12:49;101032.25;;;20.38;73.25
55113;BME280;41006;50.920;3.456;2023-06-10T01:13:27;101019.88;;;20.51;72.56
55113;BME280;41006;50.920;3.456;2023-06-10T01:14:05;101029.88;;;20.49;72.71
55113;BME280;41006;50.920;3.456;2023-06-10T01:14:37;101027.75;;;20.56;72.45
55113;BME280;41006;50.920;3.456;2023-06-10T01:15:11;101032.34;;;20.54;72.83
55113;BME280;41006;50.920;3.456;2023-06-10T01:15:42;101031.78;;;20.47;72.78
55113;BME280;41006;50.920;3.456;2023-06-10T01:16:15;101031.16;;;20.42;73.27
55113;BME280;41006;50.920;3.456;2023-06-10T01:16:46;101021.94;;;20.46;73.62
55113;BME280;41006;50.920;3.456;2023-06-10T01:17:20;101028.47;;;20.42;73.48
55113;BME280;41006;50.920;3.456;2023-06-10T01:18:11;101028.63;;;20.39;73.78
55113;BME280;41006;50.920;3.456;2023-06-10T01:18:47;101027.91;;;20.36;73.96
55113;BME280;41006;50.920;3.456;2023-06-10T01:19:20;101029.09;;;20.30;73.65
55113;BME280;41006;50.920;3.456;2023-06-10T01:19:56;101022.28;;;20.23;74.30
55113;BME280;41006;50.920;3.456;2023-06-10T01:20:29;101026.56;;;20.27;73.78
55113;BME280;41006;50.920;3.456;2023-06-10T01:21:02;101022.19;;;20.24;74.40
55113;BME280;41006;50.920;3.456;2023-06-10T01:21:33;101025.75;;;20.25;74.42
55113;BME280;41006;50.920;3.456;2023-06-10T01:22:06;101030.59;;;20.36;74.61
55113;BME280;41006;50.920;3.456;2023-06-10T01:22:37;101028.47;;;20.42;74.25
55113;BME280;41006;50.920;3.456;2023-06-10T01:23:08;101030.19;;;20.43;73.74
55113;BME280;41006;50.920;3.456;2023-06-10T01:23:39;101028.31;;;20.45;73.57
55113;BME280;41006;50.920;3.456;2023-06-10T01:24:14;101021.00;;;20.47;73.73
55113;BME280;41006;50.920;3.456;2023-06-10T01:24:47;101027.19;;;20.49;73.58
55113;BME280;41006;50.920;3.456;2023-06-10T01:25:23;101030.19;;;20.43;73.74
55113;BME280;41006;50.920;3.456;2023-06-10T01:26:05;101021.78;;;20.49;73.53
55113;BME280;41006;50.920;3.456;2023-06-10T01:26:37;101025.84;;;20.41;73.85
55113;BME280;41006;50.920;3.456;2023-06-10T01:27:13;101017.84;;;20.39;73.88
55113;BME280;41006;50.920;3.456;2023-06-10T01:27:48;101024.16;;;20.38;73.92
55113;BME280;41006;50.920;3.456;2023-06-10T01:28:52;101027.09;;;20.51;73.42
55113;BME280;41006;50.920;3.456;2023-06-10T01:29:52;101020.69;;;20.54;73.18
55113;BME280;41006;50.920;3.456;2023-06-10T01:30:27;101023.47;;;20.52;73.90
55113;BME280;41006;50.920;3.456;2023-06-10T01:31:42;101022.91;;;20.45;73.97
55113;BME280;41006;50.920;3.456;2023-06-10T01:32:25;101027.69;;;20.40;74.11
55113;BME280;41006;50.920;3.456;2023-06-10T01:33:00;101023.22;;;20.39;74.04
55113;BME280;41006;50.920;3.456;2023-06-10T01:33:35;101024.25;;;20.37;74.34
55113;BME280;41006;50.920;3.456;2023-06-10T01:34:16;101031.16;;;20.42;74.43
55113;BME280;41006;50.920;3.456;2023-06-10T01:34:49;101019.75;;;20.37;73.95
55113;BME280;41006;50.920;3.456;2023-06-10T01:35:25;101028.06;;;20.32;74.35
55113;BME280;41006;50.920;3.456;2023-06-10T01:35:57;101029.09;;;20.30;74.58
55113;BME280;41006;50.920;3.456;2023-06-10T01:36:28;101028.22;;;20.29;74.62
55113;BME280;41006;50.920;3.456;2023-06-10T01:37:04;101030.84;;;20.31;74.69
55113;BME280;41006;50.920;3.456;2023-06-10T01:37:38;101028.00;;;20.34;74.85
55113;BME280;41006;50.920;3.456;2023-06-10T01:38:13;101027.59;;;20.42;74.76
55113;BME280;41006;50.920;3.456;2023-06-10T01:38:45;101032.66;;;20.48;74.77
55113;BME280;41006;50.920;3.456;2023-06-10T01:39:17;101022.78;;;20.48;74.88
55113;BME280;41006;50.920;3.456;2023-06-10T01:39:48;101029.88;;;20.49;74.28
55113;BME280;41006;50.920;3.456;2023-06-10T01:40:19;101024.56;;;20.48;74.72
55113;BME280;41006;50.920;3.456;2023-06-10T01:40:55;101022.91;;;20.45;74.20
55113;BME280;41006;50.920;3.456;2023-06-10T01:41:29;101031.25;;;20.41;74.16
55113;BME280;41006;50.920;3.456;2023-06-10T01:42:00;101023.38;;;20.36;74.34
55113;BME280;41006;50.920;3.456;2023-06-10T01:42:32;101021.25;;;20.25;74.27
55113;BME280;41006;50.920;3.456;2023-06-10T01:43:08;101029.66;;;20.19;75.00
55113;BME280;41006;50.920;3.456;2023-06-10T01:43:38;101029.56;;;20.21;75.32
55113;BME280;41006;50.920;3.456;2023-06-10T01:44:11;101029.91;;;20.32;75.44
55113;BME280;41006;50.920;3.456;2023-06-10T01:44:42;101027.84;;;20.37;75.08
55113;BME280;41006;50.920;3.456;2023-06-10T01:45:15;101030.53;;;20.37;74.58
55113;BME280;41006;50.920;3.456;2023-06-10T01:45:48;101026.50;;;20.28;74.50
55113;BME280;41006;50.920;3.456;2023-06-10T01:46:19;101031.63;;;20.33;74.78
55113;BME280;41006;50.920;3.456;2023-06-10T01:46:54;101028.22;;;20.29;74.84
55113;BME280;41006;50.920;3.456;2023-06-10T01:47:27;101035.13;;;20.35;75.15
55113;BME280;41006;50.920;3.456;2023-06-10T01:48:05;101033.53;;;20.31;74.86
55113;BME280;41006;50.920;3.456;2023-06-10T01:48:35;101026.94;;;20.37;75.29
55113;BME280;41006;50.920;3.456;2023-06-10T01:49:05;101034.72;;;20.43;74.92
55113;BME280;41006;50.920;3.456;2023-06-10T01:49:37;101028.47;;;20.42;74.67
55113;BME280;41006;50.920;3.456;2023-06-10T01:50:07;101034.78;;;20.41;74.82
55113;BME280;41006;50.920;3.456;2023-06-10T01:50:38;101032.59;;;20.32;74.38
55113;BME280;41006;50.920;3.456;2023-06-10T01:51:11;101031.88;;;20.28;74.91
55113;BME280;41006;50.920;3.456;2023-06-10T01:51:41;101030.13;;;20.27;74.96
55113;BME280;41006;50.920;3.456;2023-06-10T01:52:14;101031.00;;;20.28;75.26
55113;BME280;41006;50.920;3.456;2023-06-10T01:52:46;101027.50;;;20.26;75.18
55113;BME280;41006;50.920;3.456;2023-06-10T01:53:22;101028.53;;;20.23;75.44
55113;BME280;41006;50.920;3.456;2023-06-10T01:53:57;101027.50;;;20.26;75.10
55113;BME280;41006;50.920;3.456;2023-06-10T01:54:32;101028.94;;;20.33;75.22
55113;BME280;41006;50.920;3.456;2023-06-10T01:55:05;101033.38;;;20.34;75.27
55113;BME280;41006;50.920;3.456;2023-06-10T01:55:35;101032.44;;;20.35;74.78
55113;BME280;41006;50.920;3.456;2023-06-10T01:56:06;101033.47;;;20.32;74.76
55113;BME280;41006;50.920;3.456;2023-06-10T01:56:41;101027.44;;;20.27;75.27
55113;BME280;41006;50.920;3.456;2023-06-10T01:57:14;101029.34;;;20.25;75.53
55113;BME280;41006;50.920;3.456;2023-06-10T01:57:47;101028.94;;;20.15;75.13
55113;BME280;41006;50.920;3.456;2023-06-10T01:58:17;101027.81;;;20.20;75.48
55113;BME280;41006;50.920;3.456;2023-06-10T01:58:50;101031.06;;;20.26;75.81
55113;BME280;41006;50.920;3.456;2023-06-10T01:59:25;101031.31;;;20.22;75.31
55113;BME280;41006;50.920;3.456;2023-06-10T01:59:58;101026.25;;;20.15;75.48
55113;BME280;41006;50.920;3.456;2023-06-10T02:00:30;101027.59;;;20.07;75.88
55113;BME280;41006;50.920;3.456;2023-06-10T02:01:03;101034.78;;;20.06;76.38
55113;BME280;41006;50.920;3.456;2023-06-10T02:01:34;101029.09;;;20.12;76.53
55113;BME280;41006;50.920;3.456;2023-06-10T02:02:06;101031.63;;;20.15;76.10
55113;BME280;41006;50.920;3.456;2023-06-10T02:02:37;101033.19;;;20.20;75.82
55113;BME280;41006;50.920;3.456;2023-06-10T02:03:07;101026.38;;;20.12;75.63
55113;BME280;41006;50.920;3.456;2023-06-10T02:03:41;101029.00;;;20.14;76.16
55113;BME280;41006;50.920;3.456;2023-06-10T02:04:16;101034.31;;;20.15;76.49
55113;BME280;41006;50.920;3.456;2023-06-10T02:04:46;101029.78;;;20.16;76.35
55113;BME280;41006;50.920;3.456;2023-06-10T02:05:19;101036.59;;;20.23;76.12
55113;BME280;41006;50.920;3.456;2023-06-10T02:05:50;101033.53;;;20.13;75.67
55113;BME280;41006;50.920;3.456;2023-06-10T02:06:23;101031.94;;;20.09;76.54
55113;BME280;41006;50.920;3.456;2023-06-10T02:06:55;101032.97;;;20.07;75.88
55113;BME280;41006;50.920;3.456;2023-06-10T02:07:26;101035.00;;;20.02;76.56
55113;BME280;41006;50.920;3.456;2023-06-10T02:07:56;101033.28;;;20.01;76.68
55113;BME280;41006;50.920;3.456;2023-06-10T02:08:29;101036.22;;;20.13;76.37
55113;BME280;41006;50.920;3.456;2023-06-10T02:09:00;101028.84;;;20.17;75.92
55113;BME280;41006;50.920;3.456;2023-06-10T02:09:33;101035.75;;;20.05;76.01
55113;BME280;41006;50.920;3.456;2023-06-10T02:10:08;101034.13;;;20.01;76.39
55113;BME280;41006;50.920;3.456;2023-06-10T02:10:44;101042.22;;;20.01;76.75
55113;BME280;41006;50.920;3.456;2023-06-10T02:11:19;101038.16;;;19.92;76.86
55113;BME280;41006;50.920;3.456;2023-06-10T02:11:53;101040.84;;;19.92;77.05
55113;BME280;41006;50.920;3.456;2023-06-10T02:12:25;101040.13;;;19.89;77.17
55113;BME280;41006;50.920;3.456;2023-06-10T02:12:56;101042.19;;;19.84;77.39
55113;BME280;41006;50.920;3.456;2023-06-10T02:13:28;101040.63;;;19.97;76.99
55113;BME280;41006;50.920;3.456;2023-06-10T02:14:02;101038.16;;;19.92;77.25
55113;BME280;41006;50.920;3.456;2023-06-10T02:14:36;101047.09;;;19.93;77.44
55113;BME280;41006;50.920;3.456;2023-06-10T02:15:08;101035.69;;;19.88;77.16
55113;BME280;41006;50.920;3.456;2023-06-10T02:15:39;101042.19;;;19.84;77.42
55113;BME280;41006;50.920;3.456;2023-06-10T02:16:12;101037.44;;;19.89;77.87
55113;BME280;41006;50.920;3.456;2023-06-10T02:16:46;101048.00;;;19.93;77.31
55113;BME280;41006;50.920;3.456;2023-06-10T02:17:17;101037.63;;;20.03;77.47
55113;BME280;41006;50.920;3.456;2023-06-10T02:17:50;101038.44;;;20.05;77.30
55113;BME280;41006;50.920;3.456;2023-06-10T02:18:20;101035.41;;;20.11;77.14
55113;BME280;41006;50.920;3.456;2023-06-10T02:18:52;101032.63;;;20.13;76.88
55113;BME280;41006;50.920;3.456;2023-06-10T02:19:22;101035.25;;;20.14;76.74
55113;BME280;41006;50.920;3.456;2023-06-10T02:19:56;101037.47;;;20.06;76.17
55113;BME280;41006;50.920;3.456;2023-06-10T02:20:27;101042.06;;;20.04;76.88
55113;BME280;41006;50.920;3.456;2023-06-10T02:20:59;101037.47;;;20.06;76.97
55113;BME280;41006;50.920;3.456;2023-06-10T02:21:32;101039.94;;;20.11;76.50
55113;BME280;41006;50.920;3.456;2023-06-10T02:22:04;101043.00;;;20.03;76.66
55113;BME280;41006;50.920;3.456;2023-06-10T02:22:37;101041.50;;;19.98;76.45
55113;BME280;41006;50.920;3.456;2023-06-10T02:23:10;101042.91;;;19.87;76.99
55113;BME280;41006;50.920;3.456;2023-06-10T02:23:40;101040.44;;;19.83;77.46
55113;BME280;41006;50.920;3.456;2023-06-10T02:24:10;101043.91;;;19.85;77.65
55113;BME280;41006;50.920;3.456;2023-06-10T02:24:41;101034.75;;;19.89;77.44
55113;BME280;41006;50.920;3.456;2023-06-10T02:25:12;101044.56;;;19.90;77.04
55113;BME280;41006;50.920;3.456;2023-06-10T02:25:46;101045.03;;;19.81;77.71
55113;BME280;41006;50.920;3.456;2023-06-10T02:26:18;101044.16;;;19.80;77.88
55113;BME280;41006;50.920;3.456;2023-06-10T02:26:50;101041.63;;;19.77;77.90
55113;BME280;41006;50.920;3.456;2023-06-10T02:27:21;101036.72;;;19.85;78.35
55113;BME280;41006;50.920;3.456;2023-06-10T02:27:52;101045.03;;;19.81;77.72
55113;BME280;41006;50.920;3.456;2023-06-10T02:28:22;101046.09;;;19.76;77.81
55113;BME280;41006;50.920;3.456;2023-06-10T02:28:55;101038.09;;;19.75;78.21
55113;BME280;41006;50.920;3.456;2023-06-10T02:29:27;101045.16;;;19.77;78.14
55113;BME280;41006;50.920;3.456;2023-06-10T02:30:00;101042.88;;;19.68;78.27
55113;BME280;41006;50.920;3.456;2023-06-10T02:30:31;101041.44;;;19.61;78.73
55113;BME280;41006;50.920;3.456;2023-06-10T02:31:04;101046.69;;;19.64;79.17
55113;BME280;41006;50.920;3.456;2023-06-10T02:31:34;101045.75;;;19.65;78.82
55113;BME280;41006;50.920;3.456;2023-06-10T02:32:06;101040.94;;;19.72;78.77
55113;BME280;41006;50.920;3.456;2023-06-10T02:32:36;101039.19;;;19.71;78.38
55113;BME280;41006;50.920;3.456;2023-06-10T02:33:07;101046.84;;;19.80;78.17
55113;BME280;41006;50.920;3.456;2023-06-10T02:33:44;101044.47;;;19.91;77.61
55113;BME280;41006;50.920;3.456;2023-06-10T02:34:20;101044.63;;;19.88;77.54
55113;BME280;41006;50.920;3.456;2023-06-10T02:34:51;101045.53;;;19.89;77.63
55113;BME280;41006;50.920;3.456;2023-06-10T02:35:21;101050.13;;;19.87;77.73
55113;BME280;41006;50.920;3.456;2023-06-10T02:35:55;101046.59;;;19.85;78.06
55113;BME280;41006;50.920;3.456;2023-06-10T02:36:25;101040.44;;;19.83;78.26
55113;BME280;41006;50.920;3.456;2023-06-10T02:36:58;101045.28;;;19.74;78.16
55113;BME280;41006;50.920;3.456;2023-06-10T02:37:28;101048.94;;;19.73;78.60
55113;BME280;41006;50.920;3.456;2023-06-10T02:37:59;101045.81;;;19.64;78.38
55113;BME280;41006;50.920;3.456;2023-06-10T02:38:29;101038.19;;;19.73;78.96
55113;BME280;41006;50.920;3.456;2023-06-10T02:39:03;101043.47;;;19.75;78.57
55113;BME280;41006;50.920;3.456;2023-06-10T02:39:34;101041.22;;;19.85;78.23
55113;BME280;41006;50.920;3.456;2023-06-10T02:40:07;101043.06;;;19.84;77.71
55113;BME280;41006;50.920;3.456;2023-06-10T02:40:40;101045.38;;;19.92;77.81
55113;BME280;41006;50.920;3.456;2023-06-10T02:41:10;101044.41;;;19.93;77.44
55113;BME280;41006;50.920;3.456;2023-06-10T02:41:45;101048.84;;;19.94;77.38
55113;BME280;41006;50.920;3.456;2023-06-10T02:42:17;101038.88;;;19.96;77.16
55113;BME280;41006;50.920;3.456;2023-06-10T02:42:48;101051.69;;;19.91;77.16
55113;BME280;41006;50.920;3.456;2023-06-10T02:43:18;101046.38;;;19.89;77.94
55113;BME280;41006;50.920;3.456;2023-06-10T02:43:49;101043.53;;;19.92;77.41
55113;BME280;41006;50.920;3.456;2023-06-10T02:44:21;101049.56;;;19.98;77.15
55113;BME280;41006;50.920;3.456;2023-06-10T02:44:51;101051.63;;;19.92;77.24
55113;BME280;41006;50.920;3.456;2023-06-10T02:45:28;101041.00;;;19.89;77.91
55113;BME280;41006;50.920;3.456;2023-06-10T02:46:00;101047.78;;;19.79;77.89
55113;BME280;41006;50.920;3.456;2023-06-10T02:46:31;101044.72;;;19.87;78.22
55113;BME280;41006;50.920;3.456;2023-06-10T02:47:02;101048.22;;;19.89;77.90
55113;BME280;41006;50.920;3.456;2023-06-10T02:47:32;101052.81;;;19.87;77.93
55113;BME280;41006;50.920;3.456;2023-06-10T02:48:03;101046.59;;;19.85;77.96
55113;BME280;41006;50.920;3.456;2023-06-10T02:48:42;101049.31;;;19.85;78.38
55113;BME280;41006;50.920;3.456;2023-06-10T02:49:19;101042.19;;;19.84;77.66
55113;BME280;41006;50.920;3.456;2023-06-10T02:49:50;101051.13;;;19.84;78.20
55113;BME280;41006;50.920;3.456;2023-06-10T02:50:22;101045.97;;;19.80;79.03
55113;BME280;41006;50.920;3.456;2023-06-10T02:50:57;101043.91;;;19.85;78.71
55113;BME280;41006;50.920;3.456;2023-06-10T02:51:32;101047.72;;;19.81;78.96
55113;BME280;41006;50.920;3.456;2023-06-10T02:52:08;101043.91;;;19.85;78.09
55113;BME280;41006;50.920;3.456;2023-06-10T02:52:41;101042.47;;;19.77;78.47
55113;BME280;41006;50.920;3.456;2023-06-10T02:53:14;101054.03;;;19.80;78.45
55113;BME280;41006;50.920;3.456;2023-06-10T02:53:45;101045.03;;;19.81;78.18
55113;BME280;41006;50.920;3.456;2023-06-10T02:54:18;101052.50;;;19.74;78.52
55113;BME280;41006;50.920;3.456;2023-06-10T02:54:53;101045.50;;;19.70;78.63
55113;BME280;41006;50.920;3.456;2023-06-10T02:55:23;101046.69;;;19.64;79.15
55113;BME280;41006;50.920;3.456;2023-06-10T02:55:58;101052.06;;;19.64;79.39